Time;durP1;ratioP1;P1;durP2;ratioP2;P2;SDS_P1;SDS_P2;PMS_P1;PMS_P2;Temp;Humidity;BMP_temperature;BMP_pressure;BME280_temperature;BME280_humidity;BME280_pressure;Samples;Min_cycle;Max_cycle;Signal;HPM_P1;HPM_P2
2021/01/03 00:02:03;;;;;;;29.23;21.92;;;5.70;83.80;;;4.88;68.16;94044.31;5064279;28;20223;-80
2021/01/03 00:04:29;;;;;;;30.33;22.08;;;5.70;83.80;;;4.86;68.24;94028.06;5051486;28;20299;-80
2021/01/03 00:06:57;;;;;;;29.55;21.30;;;5.70;83.90;;;4.90;68.16;94022.34;5040506;28;20195;-80
2021/01/03 00:09:24;;;;;;;27.30;19.42;;;5.80;84.00;;;4.93;68.00;94009.00;5054761;28;20220;-81
2021/01/03 00:11:52;;;;;;;29.77;20.58;;;5.70;84.00;;;4.89;68.52;93986.16;5071035;28;20287;-81
2021/01/03 00:14:20;;;;;;;26.15;19.08;;;5.70;83.90;;;4.90;68.58;93974.78;5071418;28;20230;-81
2021/01/03 00:16:51;;;;;;;29.65;19.98;;;5.70;83.90;;;4.95;68.47;93967.25;5069263;28;20237;-81
2021/01/03 00:19:20;;;;;;;25.42;18.67;;;5.70;84.00;;;4.97;68.41;93975.69;5041912;28;20577;-81
2021/01/03 00:21:49;;;;;;;25.45;19.10;;;5.70;83.90;;;4.97;68.52;93970.47;5034607;28;20193;-81
2021/01/03 00:24:17;;;;;;;24.55;17.85;;;5.80;84.00;;;4.97;68.57;93963.47;5018341;28;20227;-81
2021/01/03 00:26:44;;;;;;;25.45;18.67;;;5.70;83.90;;;4.96;68.28;93950.69;5041126;28;20187;-81
2021/01/03 00:29:12;;;;;;;26.30;17.65;;;5.80;83.90;;;5.00;68.00;93964.13;5054420;28;20199;-80
2021/01/03 00:31:43;;;;;;;24.33;18.55;;;5.80;83.90;;;4.99;68.05;93963.28;5053650;28;20591;-80
2021/01/03 00:34:11;;;;;;;21.60;16.33;;;5.80;83.90;;;4.99;68.05;93991.88;5071449;28;20245;-80
2021/01/03 00:36:37;;;;;;;21.25;15.15;;;5.90;83.80;;;5.01;67.79;94004.72;5066551;28;20205;-80
2021/01/03 00:39:06;;;;;;;19.67;14.80;;;5.80;83.70;;;5.00;67.71;94011.69;5034772;28;20192;-80
2021/01/03 00:41:33;;;;;;;22.17;15.80;;;5.80;83.60;;;4.97;67.97;93999.84;5053316;28;20696;-80
2021/01/03 00:44:00;;;;;;;21.95;15.23;;;5.90;83.70;;;4.98;67.51;94005.88;5071100;28;20606;-80
2021/01/03 00:46:27;;;;;;;24.25;17.02;;;5.80;83.60;;;4.93;67.50;93990.81;5070101;28;20634;-80
2021/01/03 00:48:53;;;;;;;23.45;16.30;;;5.90;83.70;;;4.94;68.06;93995.03;5070789;28;20280;-81
2021/01/03 00:51:20;;;;;;;30.17;17.33;;;5.80;83.60;;;4.93;68.01;93993.41;5048008;28;20192;-80
2021/01/03 00:53:48;;;;;;;28.55;17.15;;;5.80;83.60;;;4.93;67.83;93997.78;5044436;28;20282;-80
2021/01/03 00:56:15;;;;;;;39.33;18.02;;;5.80;83.70;;;4.94;67.93;93991.63;5068416;28;20690;-80
2021/01/03 00:58:42;;;;;;;47.83;18.48;;;5.80;83.70;;;4.94;67.86;93994.22;5046433;28;20208;-80
2021/01/03 01:01:08;;;;;;;53.15;18.20;;;5.80;83.70;;;4.96;68.17;94005.25;5050517;28;20692;-80
2021/01/03 01:03:35;;;;;;;51.10;16.77;;;5.70;83.70;;;4.96;67.91;94000.03;5050852;28;20289;-81
2021/01/03 01:06:01;;;;;;;65.88;18.35;;;5.80;83.80;;;4.97;68.02;94007.66;5051915;28;20219;-80
2021/01/03 01:08:28;;;;;;;70.72;17.55;;;5.80;83.80;;;5.00;67.55;94010.88;5052175;28;20290;-80
2021/01/03 01:10:55;;;;;;;60.92;17.48;;;5.70;83.70;;;4.99;68.09;94006.69;5044011;28;20661;-80
2021/01/03 01:13:22;;;;;;;66.50;17.50;;;5.70;83.70;;;5.02;67.53;93995.94;5054523;28;20242;-80
2021/01/03 01:15:49;;;;;;;71.75;17.30;;;5.80;83.70;;;5.02;67.53;93996.72;5054684;28;20218;-80
2021/01/03 01:18:17;;;;;;;71.13;18.50;;;5.80;83.70;;;5.03;67.74;94006.16;5038488;28;20199;-79
2021/01/03 01:20:43;;;;;;;59.08;16.27;;;5.80;84.50;;;4.99;67.88;93984.06;5026709;28;20215;-80
2021/01/03 01:23:10;;;;;;;92.32;17.90;;;5.80;83.80;;;5.04;67.65;93991.34;5052169;28;20211;-80
2021/01/03 01:25:37;;;;;;;72.85;16.65;;;5.80;83.70;;;5.04;67.72;93999.97;5057822;28;20219;-80
2021/01/03 01:28:04;;;;;;;67.28;17.48;;;5.80;83.70;;;5.04;67.81;94004.34;5053872;28;20274;-80
2021/01/03 01:30:33;;;;;;;92.45;19.67;;;5.80;83.70;;;5.03;68.08;93998.34;5038447;28;20702;-80
2021/01/03 01:33:01;;;;;;;90.65;17.75;;;5.80;83.80;;;5.01;67.79;94008.09;5042470;28;20191;-80
2021/01/03 01:35:32;;;;;;;78.13;17.15;;;5.80;83.80;;;5.05;67.89;94003.34;5054041;28;20318;-80
2021/01/03 01:37:59;;;;;;;82.10;18.98;;;5.80;83.80;;;5.06;67.83;94010.97;5038594;28;20267;-79
2021/01/03 01:40:35;;;;;;;100.28;19.63;;;5.80;83.80;;;5.06;67.89;93989.38;5054131;28;20208;-80
2021/01/03 01:43:07;;;;;;;114.97;19.83;;;5.80;83.80;;;5.04;67.99;93975.75;5023447;28;20211;-79
2021/01/03 01:45:38;;;;;;;87.22;18.73;;;5.80;83.80;;;5.07;67.91;93984.00;5037593;28;20303;-80
2021/01/03 01:48:19;;;;;;;83.38;19.70;;;5.90;83.90;;;5.03;67.88;93977.56;5053902;28;20287;-80
2021/01/03 01:50:50;;;;;;;93.07;19.08;;;5.90;84.00;;;5.08;67.96;93990.00;5039078;28;20529;-80
2021/01/03 01:53:45;;;;;;;122.47;18.85;;;5.90;84.00;;;5.08;67.86;94000.41;5041149;28;20195;-80
2021/01/03 01:56:22;;;;;;;109.70;18.98;;;5.90;84.10;;;5.07;68.54;94004.00;5073892;28;20223;-80
2021/01/03 01:59:35;;;;;;;105.32;18.50;;;5.90;83.90;;;5.06;68.03;94000.56;5040734;28;20677;-80
2021/01/03 02:02:16;;;;;;;100.88;18.55;;;5.90;84.10;;;5.08;68.13;93996.00;5038938;28;20266;-80
2021/01/03 02:05:10;;;;;;;108.53;21.63;;;5.90;84.00;;;5.09;68.19;93991.59;5065110;28;20228;-80
2021/01/03 02:08:02;;;;;;;128.20;21.55;;;5.90;84.10;;;5.09;68.18;93989.00;5054061;28;20196;-80
2021/01/03 02:10:44;;;;;;;106.60;18.50;;;5.90;84.10;;;5.08;68.38;93996.00;5066473;28;20644;-80
2021/01/03 02:13:37;;;;;;;74.32;17.42;;;5.90;84.10;;;5.12;68.25;93991.25;5049310;28;20199;-80
2021/01/03 02:16:18;;;;;;;101.97;17.63;;;5.90;84.20;;;5.11;68.31;93981.84;5064012;28;20224;-80
2021/01/03 02:18:47;;;;;;;148.18;18.65;;;5.90;84.00;;;5.12;68.37;93975.66;5043056;28;20252;-79
2021/01/03 02:21:46;;;;;;;119.40;17.95;;;5.90;84.00;;;5.11;68.10;93979.25;5065338;28;20613;-80
2021/01/03 02:25:00;;;;;;;79.82;16.75;;;5.90;84.20;;;5.08;68.13;93977.03;5055863;28;20281;-80
2021/01/03 02:27:41;;;;;;;93.55;16.52;;;5.90;84.20;;;5.10;68.32;93978.44;5050969;28;20208;-80
2021/01/03 02:30:10;;;;;;;93.45;15.63;;;5.90;84.10;;;5.10;68.12;93975.03;5057946;28;20305;-78
2021/01/03 02:32:46;;;;;;;107.40;16.23;;;5.90;84.10;;;5.11;68.07;93976.63;5048234;28;20203;-80
2021/01/03 02:35:14;;;;;;;98.88;16.10;;;6.00;84.20;;;5.12;68.56;93989.44;5063081;28;20281;-79
2021/01/03 02:37:47;;;;;;;115.75;17.15;;;5.90;84.10;;;5.11;68.40;93984.44;5051427;28;20245;-80
2021/01/03 02:40:25;;;;;;;117.13;17.08;;;6.00;84.20;;;5.12;68.30;93980.84;5049719;28;20236;-80
2021/01/03 02:42:52;;;;;;;89.63;15.80;;;5.90;84.20;;;5.10;68.32;93973.25;5061336;28;20250;-80
2021/01/03 02:45:24;;;;;;;100.95;14.98;;;5.90;84.00;;;5.11;68.08;93974.88;5033177;28;20224;-79
2021/01/03 02:47:52;;;;;;;103.40;16.58;;;5.90;84.10;;;5.08;68.31;93977.81;5047744;28;20202;-79
2021/01/03 02:50:25;;;;;;;104.07;16.00;;;5.90;84.10;;;5.12;68.24;93967.84;5070442;28;20270;-79
2021/01/03 02:52:52;;;;;;;136.90;16.42;;;6.00;84.30;;;5.09;68.28;93963.84;5035742;28;20458;-79
2021/01/03 02:55:20;;;;;;;99.30;16.15;;;5.90;84.10;;;5.12;68.36;93965.25;5056494;28;20222;-79
2021/01/03 02:57:47;;;;;;;94.47;17.00;;;6.00;84.20;;;5.14;68.48;93963.28;5058956;28;20296;-80
2021/01/03 03:00:30;;;;;;;121.35;16.85;;;5.90;84.20;;;5.13;68.04;93961.69;5049815;28;20211;-79
2021/01/03 03:02:59;;;;;;;93.43;17.33;;;5.90;84.30;;;5.10;68.42;93964.63;5046931;28;20211;-79
2021/01/03 03:05:26;;;;;;;111.03;19.50;;;5.90;84.20;;;5.10;68.29;93955.06;5048967;28;20224;-79
2021/01/03 03:07:55;;;;;;;102.72;17.30;;;5.90;84.20;;;5.12;68.59;93965.25;5062130;28;20187;-79
2021/01/03 03:10:23;;;;;;;96.20;17.02;;;5.90;84.20;;;5.15;68.32;93961.50;5043420;28;20227;-79
2021/01/03 03:12:57;;;;;;;86.65;16.25;;;5.90;84.20;;;5.13;68.30;93964.28;5059430;28;20188;-79
2021/01/03 03:15:31;;;;;;;99.30;16.92;;;5.90;84.30;;;5.09;68.03;93958.63;5028779;28;20239;-79
2021/01/03 03:18:01;;;;;;;128.85;16.63;;;6.00;84.50;;;5.13;68.57;93970.28;5033689;28;20200;-80
2021/01/03 03:20:28;;;;;;;95.22;16.73;;;5.90;84.20;;;5.15;68.35;93959.72;5062295;28;20300;-80
2021/01/03 03:22:55;;;;;;;82.13;16.05;;;5.90;84.20;;;5.14;68.39;93947.69;5050166;28;20261;-80
2021/01/03 03:25:22;;;;;;;98.72;17.13;;;5.90;84.20;;;5.11;68.51;93945.44;5032946;28;20297;-80
2021/01/03 03:27:49;;;;;;;97.82;15.35;;;5.90;85.00;;;5.13;68.48;93959.09;5063961;28;20581;-78
2021/01/03 03:30:20;;;;;;;118.50;17.30;;;5.90;84.20;;;5.13;68.30;93962.47;5044116;28;20271;-79
2021/01/03 03:32:52;;;;;;;112.78;15.95;;;5.90;84.20;;;5.13;68.36;93946.88;5050683;28;20203;-80
2021/01/03 03:35:23;;;;;;;103.75;16.10;;;5.90;84.20;;;5.11;67.87;93945.44;5038003;28;20226;-80
2021/01/03 03:37:51;;;;;;;105.88;15.63;;;5.90;84.20;;;5.10;68.39;93939.47;5065884;28;20222;-80
2021/01/03 03:40:19;;;;;;;113.70;16.42;;;5.90;84.20;;;5.13;68.74;93940.88;5062468;28;20246;-80
2021/01/03 03:42:46;;;;;;;105.38;16.38;;;6.00;84.20;;;5.11;68.11;93935.06;5055073;28;20248;-79
2021/01/03 03:45:15;;;;;;;108.97;15.65;;;5.90;84.10;;;5.13;68.16;93940.88;5034446;28;20220;-80
2021/01/03 03:47:43;;;;;;;104.18;16.98;;;5.90;84.10;;;5.13;68.22;93946.88;5034261;28;20650;-80
2021/01/03 03:50:18;;;;;;;100.50;16.98;;;5.90;84.20;;;5.10;68.11;93939.47;5038177;28;20589;-80
2021/01/03 03:52:45;;;;;;;114.55;17.15;;;5.90;84.20;;;5.13;68.01;93938.28;5034399;28;20569;-80
2021/01/03 03:55:13;;;;;;;94.22;16.63;;;5.90;84.10;;;5.10;68.15;93926.47;5051295;28;20212;-80
2021/01/03 03:57:40;;;;;;;135.75;19.48;;;5.90;84.20;;;5.13;67.85;93940.88;5035127;28;20200;-80
2021/01/03 04:00:23;;;;;;;85.03;15.05;;;5.90;84.20;;;5.14;68.20;93939.91;5035624;28;20231;-79
2021/01/03 04:02:51;;;;;;;113.80;18.05;;;5.90;84.20;;;5.11;68.07;93940.25;5052805;28;20212;-79
2021/01/03 04:05:25;;;;;;;142.93;18.88;;;6.00;84.20;;;5.10;68.42;93938.63;5065153;28;20265;-81
2021/01/03 04:07:52;;;;;;;119.82;19.23;;;5.90;84.20;;;5.06;68.26;93930.41;5069543;28;20183;-80
2021/01/03 04:10:20;;;;;;;117.70;19.30;;;5.90;84.10;;;5.08;68.53;93944.03;5071423;28;20685;-80
2021/01/03 04:12:47;;;;;;;152.05;19.42;;;5.90;84.20;;;5.09;68.44;93943.03;5034227;28;20669;-80
2021/01/03 04:15:17;;;;;;;97.63;16.65;;;5.90;84.20;;;5.10;68.03;93939.47;5019075;28;20311;-80
2021/01/03 04:17:44;;;;;;;106.68;17.65;;;5.90;84.30;;;5.09;68.32;93939.63;5038097;28;20198;-80
2021/01/03 04:20:18;;;;;;;94.30;18.27;;;5.90;84.20;;;5.06;68.23;93929.59;5034640;28;20224;-80
2021/01/03 04:22:45;;;;;;;105.28;15.60;;;5.90;84.30;;;5.09;68.62;93932.66;5050161;28;20251;-80
2021/01/03 04:25:15;;;;;;;72.32;15.18;;;5.90;84.20;;;5.07;68.13;93932.00;5051015;28;20641;-80
2021/01/03 04:27:42;;;;;;;102.80;16.92;;;5.90;84.20;;;5.09;68.15;93934.41;5051306;28;20196;-80
2021/01/03 04:30:11;;;;;;;106.00;16.60;;;5.90;84.20;;;5.08;68.26;93941.44;5050789;28;20640;-80
2021/01/03 04:32:37;;;;;;;78.45;14.90;;;5.90;84.20;;;5.08;68.16;93941.44;5036388;28;20594;-80
2021/01/03 04:35:08;;;;;;;84.78;15.63;;;6.00;84.30;;;5.08;68.01;93938.03;5040800;28;20568;-80
2021/01/03 04:37:34;;;;;;;90.70;16.63;;;5.90;84.20;;;5.07;68.13;93942.41;5050681;28;20719;-79
2021/01/03 04:40:01;;;;;;;80.07;17.48;;;5.80;84.10;;;5.04;68.38;93937.59;5044568;28;20590;-80
2021/01/03 04:42:33;;;;;;;60.88;16.27;;;5.90;84.20;;;5.05;68.32;93938.38;5046892;28;20607;-80
2021/01/03 04:45:12;;;;;;;93.97;15.85;;;5.90;84.30;;;5.06;68.16;93938.19;5055154;28;20219;-80
2021/01/03 04:47:52;;;;;;;73.15;15.93;;;5.90;84.20;;;5.04;68.19;93932.38;5033120;28;20594;-79
2021/01/03 04:50:39;;;;;;;85.20;15.85;;;5.90;84.30;;;5.06;68.08;93934.81;5060589;28;20672;-79
2021/01/03 04:53:16;;;;;;;80.78;15.85;;;5.90;84.30;;;5.02;68.32;93942.16;5050127;28;20195;-79
2021/01/03 04:55:51;;;;;;;111.10;15.35;;;5.90;84.30;;;5.02;68.66;93942.16;5067120;28;20237;-79
2021/01/03 04:58:34;;;;;;;89.93;15.55;;;5.90;84.30;;;5.01;68.32;93942.34;5049668;28;20191;-79
2021/01/03 05:01:07;;;;;;;63.85;13.93;;;5.80;84.30;;;5.03;67.99;93940.34;5039861;28;20230;-79
2021/01/03 05:04:11;;;;;;;91.13;15.88;;;5.80;84.20;;;5.00;68.24;93938.91;5072614;28;20219;-80
2021/01/03 05:06:49;;;;;;;77.85;15.25;;;5.80;84.40;;;5.01;68.12;93943.13;5039098;28;20682;-78
2021/01/03 05:09:17;;;;;;;72.07;14.70;;;5.80;84.30;;;5.02;68.29;93941.34;5043470;28;21581;-80
2021/01/03 05:12:11;;;;;;;69.88;14.02;;;5.80;84.20;;;5.00;68.04;93936.31;5043503;28;20199;-80
2021/01/03 05:14:48;;;;;;;78.80;14.93;;;5.80;84.30;;;5.01;68.60;93945.72;5068844;28;20625;-80
2021/01/03 05:17:15;;;;;;;90.88;15.27;;;5.80;84.30;;;5.01;68.11;93944.94;5063748;28;20270;-79
2021/01/03 05:19:41;;;;;;;72.70;14.68;;;5.80;84.20;;;5.01;68.36;93944.94;5045522;28;20219;-79
2021/01/03 05:22:08;;;;;;;121.05;17.98;;;5.80;84.20;;;5.01;68.65;93952.75;5053586;28;20199;-79
2021/01/03 05:24:45;;;;;;;110.90;15.43;;;5.80;84.30;;;5.01;68.14;93948.34;5036956;28;20762;-81
2021/01/03 05:27:18;;;;;;;74.43;13.60;;;5.90;84.50;;;5.03;68.26;93945.53;5047102;28;20638;-79
2021/01/03 05:29:47;;;;;;;102.88;15.82;;;5.80;84.30;;;5.02;68.29;93946.56;5039765;28;20258;-80
2021/01/03 05:32:34;;;;;;;124.18;16.20;;;5.90;84.40;;;5.00;68.20;93946.72;5051100;28;20802;-80
2021/01/03 05:35:01;;;;;;;124.80;16.13;;;5.80;84.50;;;4.96;68.41;93935.09;5069154;28;20219;-79
2021/01/03 05:37:32;;;;;;;132.40;15.65;;;5.80;84.30;;;5.00;68.07;93945.91;5040859;28;20219;-80
2021/01/03 05:39:59;;;;;;;91.78;14.57;;;5.80;84.40;;;5.02;68.45;93954.34;5043798;28;20220;-79
2021/01/03 05:42:36;;;;;;;170.80;17.60;;;5.80;84.30;;;5.02;68.30;93955.16;5034142;28;20251;-80
2021/01/03 05:45:23;;;;;;;88.53;14.93;;;5.80;84.50;;;5.02;68.28;93949.94;5052414;28;20239;-80
2021/01/03 05:48:01;;;;;;;117.47;15.80;;;5.80;84.50;;;5.04;68.34;93957.56;5036577;28;20566;-79
2021/01/03 05:50:35;;;;;;;102.40;15.60;;;5.80;84.40;;;5.00;68.13;93946.72;5039054;28;20269;-80
2021/01/03 05:53:12;;;;;;;87.93;14.48;;;5.80;84.30;;;5.02;68.28;93951.75;5042872;28;20662;-81
2021/01/03 05:56:01;;;;;;;131.95;16.90;;;5.80;84.50;;;5.01;68.07;93958.72;5067006;28;20215;-80
2021/01/03 05:58:38;;;;;;;138.77;17.05;;;5.80;84.50;;;5.01;68.18;93952.75;5058273;28;20200;-80
2021/01/03 06:01:38;;;;;;;133.15;17.23;;;5.80;84.40;;;4.98;68.23;93956.50;5070077;28;20214;-80
2021/01/03 06:04:19;;;;;;;111.15;15.88;;;5.80;84.50;;;4.99;68.29;93955.50;5019597;28;20697;-80
2021/01/03 06:06:46;;;;;;;156.27;16.02;;;5.80;84.50;;;5.01;68.47;93963.13;5052104;28;20204;-80
2021/01/03 06:09:14;;;;;;;157.05;16.88;;;5.80;84.40;;;5.01;68.30;93963.94;5062298;28;20257;-79
2021/01/03 06:12:24;;;;;;;118.53;18.00;;;5.80;84.40;;;4.97;68.23;93960.09;5056973;28;20226;-80
2021/01/03 06:14:54;;;;;;;124.88;17.70;;;5.80;84.60;;;4.97;67.98;93962.69;5037336;28;20301;-79
2021/01/03 06:17:43;;;;;;;133.27;17.67;;;5.80;84.40;;;5.00;68.17;93969.31;5043188;28;20192;-80
2021/01/03 06:20:25;;;;;;;119.43;23.35;;;5.80;84.60;;;4.99;68.72;93963.28;5067645;28;20326;-79
2021/01/03 06:23:22;;;;;;;139.95;20.17;;;5.80;84.40;;;4.98;68.24;93969.50;5053451;28;20223;-80
2021/01/03 06:26:18;;;;;;;111.78;17.75;;;5.80;84.50;;;4.95;68.26;93960.25;5042665;28;20254;-80
2021/01/03 06:28:51;;;;;;;130.45;19.33;;;5.80;84.50;;;4.95;68.30;93967.25;5040052;28;20270;-79
2021/01/03 06:31:21;;;;;;;96.05;16.95;;;5.80;84.50;;;4.99;68.72;93967.69;5054692;28;20215;-80
2021/01/03 06:34:13;;;;;;;129.13;19.15;;;5.80;84.40;;;4.98;67.97;93972.09;5076818;28;20192;-80
2021/01/03 06:37:01;;;;;;;138.93;17.85;;;5.80;84.60;;;4.92;68.55;93968.41;5056285;28;20229;-79
2021/01/03 06:39:47;;;;;;;119.80;17.67;;;5.80;84.50;;;4.96;68.27;93974.84;5077899;28;20712;-79
2021/01/03 06:42:43;;;;;;;154.32;18.58;;;5.70;84.40;;;4.95;68.41;93977.66;5063102;28;20183;-80
2021/01/03 06:45:30;;;;;;;106.75;16.85;;;5.70;84.50;;;4.92;68.45;93973.63;5045903;28;20625;-79
2021/01/03 06:48:21;;;;;;;112.68;16.48;;;5.80;84.50;;;4.94;68.26;93976.84;5064696;28;20226;-80
2021/01/03 06:51:19;;;;;;;84.10;17.05;;;5.70;84.60;;;4.90;68.25;93970.38;5036224;28;20219;-79
2021/01/03 06:54:29;;;;;;;77.10;16.40;;;5.80;84.60;;;4.92;68.24;93968.41;5051468;28;20208;-80
2021/01/03 06:57:20;;;;;;;92.82;16.55;;;5.70;84.50;;;4.91;68.41;93969.41;5052975;28;20200;-80
2021/01/03 06:59:53;;;;;;;91.63;17.42;;;5.70;84.50;;;4.92;68.60;93972.78;5065767;28;20241;-80
2021/01/03 07:02:22;;;;;;;92.40;15.98;;;5.70;84.50;;;4.92;68.55;93973.63;5069727;28;20213;-81
2021/01/03 07:04:48;;;;;;;91.85;15.18;;;5.70;84.40;;;4.91;68.74;93972.00;5089679;28;20302;-80
2021/01/03 07:07:37;;;;;;;108.55;17.25;;;5.70;84.40;;;4.92;68.68;93973.63;5047671;28;20287;-80
2021/01/03 07:10:42;;;;;;;83.30;16.42;;;5.70;84.70;;;4.92;68.50;93981.41;5054191;28;20250;-80
2021/01/03 07:13:34;;;;;;;74.15;16.00;;;5.70;84.50;;;4.94;68.24;93991.63;5030378;28;20294;-80
2021/01/03 07:16:03;;;;;;;95.13;17.30;;;5.70;84.50;;;4.93;68.35;93984.81;5051192;28;20223;-80
2021/01/03 07:18:52;;;;;;;71.20;15.93;;;5.80;84.40;;;4.93;68.06;93984.81;5027328;28;20287;-80
2021/01/03 07:21:37;;;;;;;77.60;15.02;;;5.70;84.50;;;4.93;68.40;93985.63;5038220;28;20191;-78
2021/01/03 07:24:51;;;;;;;70.30;16.83;;;5.80;85.30;;;4.91;68.60;93981.59;5058570;28;20317;-79
2021/01/03 07:27:36;;;;;;;103.15;19.63;;;5.70;84.50;;;4.91;68.46;93979.00;5048615;28;20196;-79
2021/01/03 07:30:03;;;;;;;99.57;16.25;;;5.70;84.50;;;4.90;68.69;93977.38;5077160;28;20277;-80
2021/01/03 07:32:33;;;;;;;108.10;16.92;;;5.70;84.40;;;4.91;68.18;93979.00;5039443;28;20305;-78
2021/01/03 07:35:06;;;;;;;77.30;16.15;;;5.70;84.50;;;4.92;67.93;93972.78;5051900;28;20264;-79
2021/01/03 07:37:34;;;;;;;75.68;15.70;;;5.70;84.40;;;4.90;68.54;93977.38;5061939;28;20241;-79
2021/01/03 07:40:04;;;;;;;112.57;17.88;;;5.70;84.40;;;4.92;68.50;93978.81;5061121;28;20227;-78
2021/01/03 07:42:44;;;;;;;93.65;17.17;;;5.70;84.40;;;4.91;68.55;93985.00;5047115;28;20199;-78
2021/01/03 07:45:14;;;;;;;81.30;15.98;;;5.70;84.50;;;4.92;68.45;93985.78;5081095;28;20226;-79
2021/01/03 07:47:52;;;;;;;97.95;16.02;;;5.70;84.50;;;4.89;68.27;93981.75;5049824;28;20294;-80
2021/01/03 07:50:24;;;;;;;92.65;16.05;;;5.70;84.50;;;4.92;68.43;93977.97;5070002;28;20590;-80
2021/01/03 07:52:54;;;;;;;87.35;16.33;;;5.70;84.50;;;4.92;68.68;93989.22;5049039;28;20238;-79
2021/01/03 07:55:32;;;;;;;86.95;15.80;;;5.70;84.50;;;4.91;68.72;93987.59;5054090;28;20215;-80
2021/01/03 07:58:16;;;;;;;85.82;14.57;;;5.70;84.50;;;4.92;68.58;93989.22;5069802;28;20199;-80
2021/01/03 08:00:45;;;;;;;71.72;14.07;;;5.70;84.60;;;4.93;68.38;93984.81;5066108;28;20307;-79
2021/01/03 08:03:16;;;;;;;79.28;16.30;;;5.70;84.50;;;4.93;68.46;93984.81;5049248;28;20223;-80
2021/01/03 08:05:45;;;;;;;86.55;15.00;;;5.70;84.50;;;4.94;68.73;93995.03;5034336;28;20275;-79
2021/01/03 08:08:15;;;;;;;74.07;15.52;;;5.70;85.30;;;4.97;68.31;94001.66;5051462;28;20254;-80
2021/01/03 08:10:44;;;;;;;89.07;16.52;;;5.70;84.50;;;4.96;68.65;93998.25;5063438;28;20677;-80
2021/01/03 08:13:23;;;;;;;84.95;16.13;;;5.70;84.50;;;4.96;68.46;93997.44;5051698;28;20295;-79
2021/01/03 08:15:55;;;;;;;90.55;16.92;;;5.70;84.60;;;4.96;68.63;93997.44;5034734;28;20211;-79
2021/01/03 08:18:22;;;;;;;71.32;15.23;;;5.70;84.50;;;4.97;68.18;93999.84;5066277;28;20597;-79
2021/01/03 08:20:51;;;;;;;90.90;16.08;;;5.70;84.50;;;5.01;68.28;94007.31;5067611;28;20247;-79
2021/01/03 08:23:29;;;;;;;77.45;14.15;;;5.70;84.60;;;5.01;68.37;94005.50;5078191;28;20676;-80
2021/01/03 08:26:08;;;;;;;78.50;16.40;;;5.80;84.80;;;5.00;68.69;94006.47;5059473;28;20712;-79
2021/01/03 08:28:48;;;;;;;79.95;16.48;;;5.80;84.80;;;5.01;68.77;94005.50;5045201;28;20256;-80
2021/01/03 08:31:14;;;;;;;76.97;16.17;;;5.70;84.60;;;5.02;68.32;94006.31;5047594;28;20710;-79
2021/01/03 08:33:42;;;;;;;88.15;16.13;;;5.70;84.60;;;5.03;68.51;94002.72;5048512;28;20202;-80
2021/01/03 08:36:31;;;;;;;81.63;15.25;;;5.80;84.70;;;5.03;68.27;94011.34;5042206;28;20232;-80
2021/01/03 08:39:05;;;;;;;70.15;13.20;;;5.80;85.60;;;5.04;68.48;94017.34;5046713;28;20207;-80
2021/01/03 08:41:39;;;;;;;67.32;15.70;;;5.80;84.70;;;5.04;68.37;94010.34;5044740;28;21013;-79
2021/01/03 08:44:07;;;;;;;59.25;14.93;;;5.80;84.80;;;5.00;68.46;94016.88;5056509;28;20223;-79
2021/01/03 08:46:35;;;;;;;58.08;13.85;;;5.80;84.70;;;5.07;68.66;94024.78;5055766;28;20540;-79
2021/01/03 08:49:09;;;;;;;52.47;13.82;;;5.80;84.70;;;5.09;67.99;94023.63;5045148;28;20207;-79
2021/01/03 08:51:37;;;;;;;64.82;15.18;;;5.80;84.70;;;5.12;68.38;94027.66;5058487;28;20196;-78
2021/01/03 08:54:10;;;;;;;45.38;14.40;;;5.80;84.70;;;5.10;68.24;94030.44;5062991;28;20298;-79
2021/01/03 08:56:47;;;;;;;74.63;14.70;;;5.90;84.80;;;5.15;68.53;94039.47;5055593;28;20227;-79
2021/01/03 08:59:18;;;;;;;67.47;14.48;;;5.80;84.70;;;5.16;68.41;94048.88;5066627;28;20764;-78
2021/01/03 09:01:45;;;;;;;57.28;13.90;;;5.90;84.70;;;5.17;68.39;94047.91;5034598;28;20316;-79
2021/01/03 09:04:17;;;;;;;61.65;15.07;;;5.90;84.70;;;5.16;68.14;94047.09;5038392;28;20220;-79
2021/01/03 09:06:50;;;;;;;52.10;15.18;;;5.90;84.70;;;5.16;68.24;94054.09;5029803;28;20268;-80
2021/01/03 09:09:21;;;;;;;31.92;13.82;;;5.90;84.60;;;5.18;68.33;94055.50;5054136;28;20273;-80
2021/01/03 09:12:11;;;;;;;47.88;13.80;;;5.90;84.70;;;5.17;68.04;94051.28;5043397;28;20655;-79
2021/01/03 09:14:53;;;;;;;66.93;14.38;;;5.90;84.70;;;5.17;68.41;94058.31;5049914;28;20234;-78
2021/01/03 09:17:30;;;;;;;54.45;13.70;;;6.00;84.80;;;5.20;68.07;94058.75;5048291;28;20249;-79
2021/01/03 09:20:09;;;;;;;42.92;13.43;;;5.90;84.60;;;5.20;68.26;94063.94;5060280;28;20266;-79
2021/01/03 09:22:43;;;;;;;45.67;13.52;;;5.90;84.60;;;5.18;68.22;94065.13;5048421;28;20196;-79
2021/01/03 09:25:12;;;;;;;54.83;13.80;;;5.90;84.60;;;5.19;68.24;94059.72;5048041;28;20301;-79
2021/01/03 09:27:41;;;;;;;48.58;13.82;;;5.90;84.50;;;5.17;68.51;94059.09;5044173;28;20204;-79
2021/01/03 09:30:31;;;;;;;53.58;14.00;;;5.90;84.50;;;5.16;68.02;94049.69;5034010;28;20332;-79
2021/01/03 09:33:17;;;;;;;49.10;13.43;;;5.90;84.50;;;5.15;68.33;94055.06;5070748;28;20218;-79
2021/01/03 09:35:54;;;;;;;76.25;14.32;;;5.90;84.50;;;5.13;68.42;94063.84;5042513;28;20224;-78
2021/01/03 09:39:13;;;;;;;46.92;15.65;;;5.90;84.50;;;5.09;68.15;94064.38;5042875;28;20214;-80
2021/01/03 09:42:01;;;;;;;35.72;14.07;;;5.90;84.50;;;5.07;68.25;94059.38;5070595;28;20294;-80
2021/01/03 09:44:41;;;;;;;65.93;14.85;;;5.90;84.40;;;5.07;68.14;94064.56;5067906;28;20322;-79
2021/01/03 09:47:12;;;;;;;63.17;14.30;;;5.90;84.50;;;5.08;68.12;94066.19;5071926;28;22131;-79
2021/01/03 09:49:49;;;;;;;60.92;13.13;;;5.90;84.40;;;5.08;68.06;94071.38;5054340;28;20575;-80
2021/01/03 09:52:36;;;;;;;74.10;15.60;;;5.90;84.40;;;5.05;68.34;94070.94;5074113;28;20211;-79
2021/01/03 09:55:03;;;;;;;60.55;14.82;;;5.90;84.50;;;5.07;68.22;94071.56;5058417;28;20598;-78
2021/01/03 09:57:47;;;;;;;69.88;14.48;;;5.90;84.40;;;5.06;68.13;94062.94;5059957;28;20652;-80
2021/01/03 10:00:39;;;;;;;48.08;14.35;;;5.90;85.40;;;5.08;68.21;94065.38;5056614;28;20229;-80
2021/01/03 10:03:38;;;;;;;63.20;13.85;;;5.80;84.50;;;5.08;68.51;94068.78;5071835;28;20219;-79
2021/01/03 10:06:35;;;;;;;60.65;15.02;;;5.90;84.70;;;5.07;68.16;94061.97;5090268;28;20298;-79
2021/01/03 10:09:32;;;;;;;53.55;13.60;;;5.90;84.80;;;5.07;68.44;94063.78;5056952;28;20551;-79
2021/01/03 10:12:26;;;;;;;51.83;14.25;;;5.90;84.80;;;5.08;68.60;94066.19;5045902;28;20206;-80
2021/01/03 10:15:25;;;;;;;46.30;12.73;;;5.90;84.70;;;5.09;68.22;94057.41;5045808;28;20815;-79
2021/01/03 10:18:02;;;;;;;72.13;14.65;;;5.90;84.70;;;5.10;68.11;94047.81;5048512;28;20246;-79
2021/01/03 10:20:39;;;;;;;90.80;14.80;;;5.90;84.80;;;5.17;68.31;94056.50;5048337;28;20661;-79
2021/01/03 10:23:29;;;;;;;67.72;15.15;;;5.90;84.80;;;5.21;68.11;94054.34;5071432;28;20227;-80
2021/01/03 10:25:56;;;;;;;51.65;14.40;;;5.90;84.70;;;5.23;68.67;94060.19;5054798;28;20211;-78
2021/01/03 10:28:22;;;;;;;87.60;16.73;;;6.00;84.80;;;5.25;68.63;94053.03;5034608;28;20195;-79
2021/01/03 10:30:49;;;;;;;60.50;15.82;;;6.00;84.80;;;5.26;68.39;94050.22;5046204;28;20216;-79
2021/01/03 10:33:16;;;;;;;50.17;14.40;;;6.00;84.80;;;5.31;68.38;94051.47;5038551;28;20195;-80
2021/01/03 10:35:43;;;;;;;72.88;16.05;;;6.00;84.80;;;5.31;68.21;94035.88;5049457;28;20228;-78
2021/01/03 10:38:10;;;;;;;64.13;14.95;;;6.00;84.90;;;5.38;68.33;94037.59;5061086;28;20214;-79
2021/01/03 10:40:37;;;;;;;51.80;14.98;;;6.10;85.00;;;5.43;67.91;94045.66;5036341;28;20264;-78
2021/01/03 10:43:05;;;;;;;58.67;14.45;;;6.10;85.10;;;5.49;67.96;94045.91;5050509;28;20258;-79
2021/01/03 10:45:32;;;;;;;63.55;15.00;;;6.10;85.10;;;5.53;68.25;94040.16;5051006;28;20273;-78
2021/01/03 10:48:00;;;;;;;54.55;15.07;;;6.10;85.10;;;5.58;68.42;94037.81;5039581;28;20195;-80
2021/01/03 10:50:27;;;;;;;48.45;14.68;;;6.20;85.20;;;5.66;68.09;94038.69;5052062;28;20579;-80
2021/01/03 10:52:54;;;;;;;47.35;15.20;;;6.30;85.30;;;5.68;68.27;94032.31;5057897;28;20203;-79